Time;durP1;ratioP1;P1;durP2;ratioP2;P2;SDS_P1;SDS_P2;PMS_P1;PMS_P2;Temp;Humidity;BMP_temperature;BMP_pressure;BME280_temperature;BME280_humidity;BME280_pressure;Samples;Min_cycle;Max_cycle;Signal;HPM_P1;HPM_P2
2024/01/16 00:06:44;;;;;;;6.43;1.00;;;0.90;99.90;;;;;;20575863;28;20050;-42
2024/01/16 00:16:47;;;;;;;4.80;0.88;;;1.10;99.90;;;;;;20591363;28;20107;-43
2024/01/16 00:26:49;;;;;;;5.13;0.50;;;1.00;99.90;;;;;;20586070;28;20046;-43
2024/01/16 00:36:50;;;;;;;5.65;0.88;;;1.00;99.90;;;;;;20584563;28;20034;-43
2024/01/16 00:46:51;;;;;;;9.27;1.30;;;0.90;99.90;;;;;;20588482;28;20049;-43
2024/01/16 00:56:55;;;;;;;3.20;0.47;;;1.00;99.90;;;;;;20590363;28;20145;-42
2024/01/16 01:06:55;;;;;;;7.75;0.90;;;1.00;99.90;;;;;;20590872;28;20461;-42
2024/01/16 01:16:56;;;;;;;4.20;0.60;;;1.00;99.90;;;;;;20581111;28;20523;-43
2024/01/16 01:26:57;;;;;;;7.78;0.75;;;0.90;99.90;;;;;;20601312;28;20234;-43
2024/01/16 01:36:59;;;;;;;5.47;0.60;;;1.00;99.90;;;;;;20607690;28;20449;-42
2024/01/16 01:46:59;;;;;;;2.90;0.20;;;1.50;99.90;;;;;;20600263;28;20129;-42
2024/01/16 01:57:01;;;;;;;2.08;0.50;;;1.50;99.90;;;;;;20580390;28;20873;-42
2024/01/16 02:07:03;;;;;;;2.38;0.10;;;1.40;99.90;;;;;;20587681;28;20466;-44
2024/01/16 02:17:04;;;;;;;0.40;0.10;;;1.30;99.90;;;;;;20601517;28;20038;-43
2024/01/16 02:27:05;;;;;;;1.80;0.20;;;1.20;99.90;;;;;;20599550;28;20074;-43
2024/01/16 02:37:06;;;;;;;2.60;0.20;;;1.20;99.90;;;;;;20581186;28;20454;-42
2024/01/16 02:47:07;;;;;;;1.17;0.15;;;1.10;99.90;;;;;;20585880;28;20039;-42
2024/01/16 02:57:07;;;;;;;1.67;0.20;;;1.00;99.90;;;;;;20579644;28;20454;-42
2024/01/16 03:07:08;;;;;;;0.95;0.10;;;1.00;99.90;;;;;;20581052;28;20038;-42
2024/01/16 03:17:09;;;;;;;0.90;0.30;;;0.90;99.90;;;;;;20573989;28;20030;-42
2024/01/16 03:27:09;;;;;;;1.30;0.35;;;0.90;99.90;;;;;;20581496;28;20505;-43
2024/01/16 03:37:10;;;;;;;9.32;1.45;;;0.90;99.90;;;;;;20593463;28;20097;-41
2024/01/16 03:47:10;;;;;;;1.42;0.75;;;1.00;99.90;;;;;;20579841;28;20147;-41
2024/01/16 03:57:12;;;;;;;7.00;0.60;;;1.00;99.90;;;;;;20573196;28;20479;-41
2024/01/16 04:07:12;;;;;;;3.05;0.52;;;1.00;99.90;;;;;;20572876;28;20050;-43
2024/01/16 04:17:13;;;;;;;5.20;0.52;;;1.00;99.90;;;;;;20566814;28;20404;-43
2024/01/16 04:27:14;;;;;;;5.53;0.90;;;0.90;99.90;;;;;;20552963;28;20046;-43
2024/01/16 04:37:14;;;;;;;1.98;0.57;;;1.10;99.90;;;;;;20575483;28;20568;-44
2024/01/16 04:47:15;;;;;;;5.22;0.68;;;1.20;99.90;;;;;;20575006;28;20446;-44
2024/01/16 04:57:16;;;;;;;9.35;1.23;;;1.20;99.90;;;;;;20589352;28;20039;-43
2024/01/16 05:07:16;;;;;;;3.38;0.82;;;1.20;99.90;;;;;;20593017;28;20445;-43
2024/01/16 05:17:17;;;;;;;9.05;0.90;;;1.40;99.90;;;;;;20589874;28;22723;-43
2024/01/16 05:27:18;;;;;;;4.00;0.68;;;1.50;99.90;;;;;;20585391;28;20062;-43
2024/01/16 05:37:19;;;;;;;6.07;1.45;;;1.50;99.90;;;;;;20580921;28;20030;-42
2024/01/16 05:47:20;;;;;;;3.75;0.90;;;1.40;99.90;;;;;;20586398;28;20884;-43
2024/01/16 05:57:21;;;;;;;2.63;0.80;;;1.50;99.90;;;;;;20588849;28;20498;-42
2024/01/16 06:07:21;;;;;;;4.40;1.00;;;1.30;99.90;;;;;;20581567;28;20034;-43
2024/01/16 06:17:22;;;;;;;6.38;1.40;;;1.50;99.90;;;;;;20583839;28;20272;-43
2024/01/16 06:27:22;;;;;;;6.10;1.63;;;1.50;99.90;;;;;;20579160;28;20654;-43
2024/01/16 06:37:23;;;;;;;4.40;1.67;;;1.30;99.90;;;;;;20586975;28;20034;-43
2024/01/16 06:47:24;;;;;;;7.32;2.45;;;1.40;99.90;;;;;;20572628;28;21083;-42
2024/01/16 06:57:24;;;;;;;6.28;2.50;;;1.30;99.90;;;;;;20582066;28;20039;-42
2024/01/16 07:07:25;;;;;;;9.98;5.47;;;1.20;99.90;;;;;;20590733;28;20046;-43
2024/01/16 07:17:25;;;;;;;10.65;4.70;;;1.20;99.90;;;;;;20571895;28;20503;-43
2024/01/16 07:27:26;;;;;;;12.93;5.23;;;1.10;99.90;;;;;;20577779;28;20437;-42
2024/01/16 07:37:27;;;;;;;13.93;6.18;;;1.20;99.90;;;;;;20589970;28;20559;-43
2024/01/16 07:47:27;;;;;;;11.60;6.00;;;1.20;99.90;;;;;;20585063;28;20064;-43
2024/01/16 07:57:28;;;;;;;12.03;4.83;;;1.10;99.90;;;;;;20588990;28;20545;-42
2024/01/16 08:07:28;;;;;;;10.57;4.05;;;1.30;99.90;;;;;;20574124;28;20480;-42
2024/01/16 08:17:29;;;;;;;9.02;3.47;;;1.20;99.90;;;;;;20573013;28;20047;-42
2024/01/16 08:27:30;;;;;;;7.15;2.70;;;1.20;99.90;;;;;;20575337;28;20049;-43
2024/01/16 08:37:32;;;;;;;7.38;2.40;;;1.20;99.90;;;;;;20571039;28;20046;-43
2024/01/16 08:47:32;;;;;;;8.00;2.78;;;1.10;99.90;;;;;;20571720;28;20058;-43
2024/01/16 08:57:33;;;;;;;9.73;3.20;;;1.10;99.90;;;;;;20574978;28;20140;-42
2024/01/16 09:07:33;;;;;;;5.63;2.28;;;1.20;99.90;;;;;;20567437;28;20097;-43
2024/01/16 09:17:34;;;;;;;8.97;2.30;;;1.40;99.90;;;;;;20567702;28;20053;-42
2024/01/16 09:27:34;;;;;;;8.93;1.80;;;1.60;90.90;;;;;;20575438;28;20462;-43
2024/01/16 09:37:35;;;;;;;7.30;3.10;;;1.60;67.70;;;;;;20575090;28;20034;-42
2024/01/16 09:47:37;;;;;;;11.15;2.42;;;1.50;61.60;;;;;;20582031;28;20866;-42
2024/01/16 09:57:40;;;;;;;7.90;1.90;;;1.60;67.80;;;;;;20586231;28;20453;-41
2024/01/16 10:07:45;;;;;;;12.43;4.72;;;1.70;49.10;;;;;;20582150;28;20664;-42
2024/01/16 10:17:46;;;;;;;21.80;6.90;;;1.80;31.40;;;;;;20576563;28;20065;-42
2024/01/16 10:27:47;;;;;;;26.60;9.52;;;2.00;23.90;;;;;;20582081;28;20287;-43
2024/01/16 10:37:49;;;;;;;11.13;4.55;;;2.20;28.20;;;;;;20578140;28;20042;-44
2024/01/16 10:48:04;;;;;;;9.13;2.63;;;2.80;15.00;;;;;;20578134;28;20079;-43
2024/01/16 10:58:06;;;;;;;8.05;2.58;;;3.30;1.50;;;;;;20576997;28;20475;-42
2024/01/16 11:08:09;;;;;;;7.18;1.83;;;3.50;1.00;;;;;;20587971;28;20042;-42
2024/01/16 11:18:12;;;;;;;8.35;2.30;;;3.80;1.00;;;;;;20591182;28;20105;-41
2024/01/16 11:28:14;;;;;;;6.78;2.05;;;4.10;1.00;;;;;;20590648;28;20515;-42
2024/01/16 11:38:20;;;;;;;5.50;2.20;;;4.40;1.00;;;;;;20580836;28;20494;-41
2024/01/16 11:48:20;;;;;;;4.40;1.95;;;4.60;1.00;;;;;;20576181;28;20047;-41
2024/01/16 11:58:24;;;;;;;8.00;2.20;;;4.70;1.00;;;;;;20579409;28;20049;-42
2024/01/16 12:08:26;;;;;;;4.07;2.00;;;5.00;1.00;;;;;;20574627;28;20038;-44
2024/01/16 12:18:26;;;;;;;7.90;2.53;;;5.30;1.00;;;;;;20571578;28;20054;-42
2024/01/16 12:28:27;;;;;;;8.18;2.92;;;4.60;1.00;;;;;;20579038;28;20039;-42
2024/01/16 12:38:28;;;;;;;7.97;2.58;;;3.90;1.00;;;;;;20567544;28;20133;-42
2024/01/16 12:48:29;;;;;;;7.32;2.70;;;4.20;1.00;;;;;;20573332;28;20038;-42
2024/01/16 12:58:34;;;;;;;8.25;2.80;;;4.30;1.00;;;;;;20576995;28;20561;-43
2024/01/16 13:08:35;;;;;;;3.25;1.00;;;4.90;1.00;;;;;;20576269;28;20044;-42
2024/01/16 13:18:35;;;;;;;4.00;0.45;;;5.10;1.00;;;;;;20585730;28;20034;-42
2024/01/16 13:28:36;;;;;;;5.03;0.70;;;4.90;1.00;;;;;;20583482;28;20041;-43
2024/01/16 13:38:36;;;;;;;3.33;0.80;;;4.60;1.00;;;;;;20583538;28;20034;-43
2024/01/16 13:48:37;;;;;;;1.33;0.65;;;4.00;1.00;;;;;;20583535;28;20825;-42
2024/01/16 13:58:38;;;;;;;3.00;0.63;;;4.10;1.00;;;;;;20583046;28;20629;-42
2024/01/16 14:08:39;;;;;;;4.35;0.93;;;4.10;1.00;;;;;;20578512;28;20046;-42
2024/01/16 14:18:39;;;;;;;2.53;0.82;;;3.80;1.00;;;;;;20581171;28;20479;-41
2024/01/16 14:28:40;;;;;;;3.37;0.60;;;3.60;1.00;;;;;;20580453;28;20042;-41
2024/01/16 14:38:41;;;;;;;2.07;0.90;;;3.60;1.00;;;;;;20581146;28;20490;-43
2024/01/16 14:48:45;;;;;;;4.97;0.95;;;3.70;1.00;;;;;;20579758;28;20470;-48
2024/01/16 14:58:46;;;;;;;3.10;1.10;;;3.80;1.00;;;;;;20590902;28;20454;-42
2024/01/16 15:08:48;;;;;;;6.32;2.00;;;3.50;1.00;;;;;;20594857;28;20051;-42
2024/01/16 15:18:48;;;;;;;5.82;2.60;;;3.40;1.00;;;;;;20584455;28;20069;-43
2024/01/16 15:28:49;;;;;;;6.17;2.40;;;3.30;1.00;;;;;;20590801;28;20543;-42
2024/01/16 15:38:50;;;;;;;8.45;2.92;;;3.30;1.00;;;;;;20586932;28;20568;-43
2024/01/16 15:48:56;;;;;;;8.07;3.15;;;3.20;1.00;;;;;;20590924;28;20055;-42
2024/01/16 15:58:57;;;;;;;11.55;2.78;;;3.10;1.00;;;;;;20584924;28;20038;-42
2024/01/16 16:08:58;;;;;;;8.15;2.17;;;3.00;1.00;;;;;;20576082;28;20498;-42
2024/01/16 16:18:59;;;;;;;6.80;2.53;;;2.90;1.00;;;;;;20571783;28;20333;-41
2024/01/16 16:29:05;;;;;;;7.40;2.50;;;2.90;1.00;;;;;;20573038;28;20450;-42
2024/01/16 16:39:06;;;;;;;10.03;2.97;;;2.90;1.00;;;;;;20575689;28;20414;-42
2024/01/16 16:49:06;;;;;;;7.32;2.58;;;2.90;1.00;;;;;;20581188;28;20108;-42
2024/01/16 16:59:07;;;;;;;9.93;2.97;;;2.80;1.00;;;;;;20593717;28;20339;-41
2024/01/16 17:09:11;;;;;;;7.97;3.40;;;2.80;1.00;;;;;;20595746;28;20450;-41
2024/01/16 17:19:12;;;;;;;9.38;2.90;;;2.60;1.00;;;;;;20587376;28;20422;-41
2024/01/16 17:29:12;;;;;;;7.40;3.30;;;2.70;1.00;;;;;;20570625;28;20047;-42
2024/01/16 17:39:15;;;;;;;9.40;4.20;;;2.60;1.00;;;;;;20577773;28;20530;-42
2024/01/16 17:49:15;;;;;;;6.82;3.58;;;2.70;1.00;;;;;;20571187;28;20470;-43
2024/01/16 17:59:18;;;;;;;7.88;3.50;;;2.60;1.00;;;;;;20569247;28;20043;-42
2024/01/16 18:09:19;;;;;;;10.70;4.10;;;2.60;1.00;;;;;;20568074;28;20047;-43
2024/01/16 18:19:24;;;;;;;9.82;3.55;;;2.60;1.00;;;;;;20576439;28;20593;-43
2024/01/16 18:29:26;;;;;;;15.27;3.97;;;2.60;1.00;;;;;;20534538;28;20054;-42
2024/01/16 18:39:27;;;;;;;8.93;3.95;;;2.50;1.00;;;;;;20562402;28;20034;-42
2024/01/16 18:49:28;;;;;;;9.65;4.10;;;2.50;1.00;;;;;;20560347;28;20124;-43
2024/01/16 18:59:29;;;;;;;11.13;4.50;;;2.40;1.00;;;;;;20577767;28;20039;-42
2024/01/16 19:09:36;;;;;;;8.93;4.27;;;2.30;1.00;;;;;;20564984;28;20477;-42
2024/01/16 19:19:37;;;;;;;9.95;5.15;;;2.30;1.00;;;;;;20567873;28;20466;-41
2024/01/16 19:29:38;;;;;;;8.30;4.70;;;2.30;1.00;;;;;;20561823;28;20550;-41
2024/01/16 19:39:42;;;;;;;9.00;4.15;;;2.10;1.00;;;;;;20568521;28;20576;-42
2024/01/16 19:49:43;;;;;;;10.13;5.38;;;2.00;1.00;;;;;;20573059;28;20776;-41
2024/01/16 19:59:44;;;;;;;10.60;5.35;;;2.00;1.00;;;;;;20566281;28;20042;-42
2024/01/16 20:09:45;;;;;;;13.57;6.77;;;1.90;1.00;;;;;;20557828;28;20080;-42
2024/01/16 20:19:46;;;;;;;13.38;6.63;;;1.80;1.00;;;;;;20570013;28;21395;-42
2024/01/16 20:29:46;;;;;;;11.30;5.25;;;1.70;1.00;;;;;;20556677;28;20526;-42
2024/01/16 20:39:47;;;;;;;7.63;4.07;;;1.50;1.00;;;;;;20545795;28;20050;-42
2024/01/16 20:49:48;;;;;;;10.25;4.57;;;1.50;1.00;;;;;;20568495;28;20070;-42
2024/01/16 20:59:51;;;;;;;9.20;4.63;;;1.40;1.00;;;;;;20569214;28;20445;-42
2024/01/16 21:09:52;;;;;;;13.80;4.50;;;1.30;1.00;;;;;;20563441;28;21038;-41
2024/01/16 21:19:53;;;;;;;11.27;5.82;;;1.30;1.00;;;;;;20566428;28;20478;-42
2024/01/16 21:29:55;;;;;;;13.67;6.37;;;1.10;1.00;;;;;;20558583;28;20050;-43
2024/01/16 21:39:55;;;;;;;14.10;6.10;;;1.00;1.00;;;;;;20576674;28;20469;-43
2024/01/16 21:49:56;;;;;;;16.33;6.70;;;1.00;1.00;;;;;;20570735;28;20043;-42
2024/01/16 21:59:56;;;;;;;13.07;7.03;;;1.00;1.00;;;;;;20576616;28;20445;-42
2024/01/16 22:09:58;;;;;;;14.40;6.85;;;0.80;1.00;;;;;;20578165;28;20451;-42
2024/01/16 22:19:59;;;;;;;12.90;6.95;;;0.60;1.00;;;;;;20586556;28;21043;-42
2024/01/16 22:30:00;;;;;;;16.20;7.13;;;0.70;1.00;;;;;;20587902;28;20046;-42
2024/01/16 22:40:00;;;;;;;16.02;7.10;;;0.70;1.00;;;;;;20577713;28;20085;-42
2024/01/16 22:50:03;;;;;;;18.10;7.90;;;0.60;1.00;;;;;;20584185;28;20051;-42
2024/01/16 23:00:04;;;;;;;15.13;7.82;;;0.60;1.00;;;;;;20569990;28;20167;-42
2024/01/16 23:10:05;;;;;;;14.00;7.47;;;0.70;1.00;;;;;;20573629;28;20035;-42
2024/01/16 23:20:13;;;;;;;19.17;7.70;;;0.70;1.00;;;;;;20571454;28;20039;-42
2024/01/16 23:30:14;;;;;;;15.90;8.27;;;0.70;1.00;;;;;;20572164;28;20045;-43
2024/01/16 23:40:17;;;;;;;15.07;8.30;;;0.60;1.00;;;;;;20576445;28;20085;-42
2024/01/16 23:50:17;;;;;;;18.52;8.52;;;0.70;1.00;;;;;;20579192;28;20489;-41
